Buriti dos Lopes, Brazil
Current Conditions -  °F | °C
As of 8:00 AM on Friday 19 Dec 2014 (Local Time) from SBPB Reporting Station
Few Clouds Few Clouds  
Wind Chill: 88°   Ceiling: Unl
Heat Index: 96°   Visibility: 6mi
Dew Point: 73°   Wind: 18mph
Humidity: 62%   Direction: 90°E
Pressure: 29.85"   Gusts: NA
Location:  3.18°S, 41.87°W
Report Text: SBPB 191100Z 09016KT 9999 FEW020 31/23 Q1011
Loading
Personal Weather Stations






























Interactive Weather Map New forecast layout! Learn more

10-Day Weather Forecast

Advertisements
Track Severe Weather on mobile